Decoded Metar for LFQA (REIMS in FRANCE) (IATA:N/A) | Meteo·Mobile Aviation Weather
aviador You're here:

LFQA Decoded Metar

REIMS in FRANCE
Report Time2019-06-19 00:30:00
UTC Time2019-06-19 00:45:59
Flight Rules vfr VFR
Wind080° at 07 kt
W.Decomp.*RWY 07: 6.9 kt HW 1.2 kt RCW
Visibility9999 m
Phenomena:N/A
Clouds:N/A
Expected CloudBase > 400 ft AGL from Temp-Dew spread
CeilingNone
Temp15°C (ISA +1)
Dew Point14°C (94% RH)
AAT13.8°C
QNH1008 hPa
Density Alt768 ft
Elevation312 ft
Report Wrong Elevation
Raw Report
METAR LFQA 190030Z AUTO 08007KT CAVOK 15/14 Q1008=

Extra information for LFQA:More info

Metar Taf Metar & Taf Last 4 Metars F.Rules Stats Wind Profile Meteogram Temp Stats Airport Information Weather charts Add Link Nearby VenuesMetar ALERT Operation Metar Decoded Social comments